Time;durP1;ratioP1;P1;durP2;ratioP2;P2;SDS_P1;SDS_P2;PMS_P1;PMS_P2;Temp;Humidity;BMP_temperature;BMP_pressure;BME280_temperature;BME280_humidity;BME280_pressure;Samples;Min_cycle;Max_cycle;Signal;HPM_P1;HPM_P2
2023/05/08 00:00:37;;;;;;;3.83;2.90;;;;;;;13.90;100.00;99115.81;5024324;28;20029;-61
2023/05/08 00:03:03;;;;;;;5.00;3.08;;;;;;;13.89;100.00;99111.44;5012835;28;20502;-61
2023/05/08 00:05:29;;;;;;;4.85;3.28;;;;;;;13.88;100.00;99117.91;5022063;28;20057;-61
2023/05/08 00:08:00;;;;;;;4.55;3.38;;;;;;;13.78;100.00;99100.19;5028148;23;20099;-75
2023/05/08 00:10:26;;;;;;;4.75;3.13;;;;;;;13.76;100.00;99096.84;5037023;28;20103;-75
2023/05/08 00:12:51;;;;;;;5.82;3.50;;;;;;;13.86;100.00;99104.56;5021978;28;20242;-74
2023/05/08 00:15:17;;;;;;;4.88;3.08;;;;;;;13.80;100.00;99100.78;5031174;28;20100;-74
2023/05/08 00:17:42;;;;;;;4.68;3.53;;;;;;;13.79;100.00;99090.97;5018992;28;20033;-76
2023/05/08 00:20:08;;;;;;;4.30;3.13;;;;;;;13.82;100.00;99092.44;5023243;28;20064;-75
2023/05/08 00:22:33;;;;;;;4.25;3.15;;;;;;;13.81;100.00;99086.16;5031649;28;20124;-76
2023/05/08 00:24:58;;;;;;;5.35;3.03;;;;;;;13.98;100.00;99107.41;5029550;28;20111;-76
2023/05/08 00:27:24;;;;;;;6.90;3.22;;;;;;;13.95;100.00;99097.78;5029014;28;20025;-76
2023/05/08 00:29:49;;;;;;;3.72;3.00;;;;;;;13.93;100.00;99096.34;5019855;28;20029;-76
2023/05/08 00:32:14;;;;;;;6.82;3.40;;;;;;;13.90;100.00;99107.66;5032796;28;20036;-75
2023/05/08 00:34:39;;;;;;;6.97;3.38;;;;;;;13.80;100.00;99097.25;5033351;28;20550;-75
2023/05/08 00:37:05;;;;;;;6.32;3.90;;;;;;;13.72;100.00;99092.88;5015497;28;20071;-74
2023/05/08 00:39:30;;;;;;;4.68;3.60;;;;;;;13.76;100.00;99105.00;5030462;28;20036;-74
2023/05/08 00:41:56;;;;;;;5.93;3.30;;;;;;;13.80;100.00;99106.22;5033144;28;20036;-74
2023/05/08 00:44:21;;;;;;;6.32;3.67;;;;;;;13.78;100.00;99110.22;5029921;28;20036;-73
2023/05/08 00:46:46;;;;;;;7.95;3.88;;;;;;;13.76;100.00;99105.00;5029241;28;20454;-74
2023/05/08 00:49:13;;;;;;;4.95;3.30;;;;;;;13.83;100.00;99115.84;5030333;28;20033;-73
2023/05/08 00:51:46;;;;;;;6.53;3.30;;;;;;;13.81;100.00;99117.97;5032665;28;20030;-74
2023/05/08 00:54:12;;;;;;;4.97;3.47;;;;;;;13.83;100.00;99115.84;5031303;28;20036;-75
2023/05/08 00:56:38;;;;;;;4.35;3.85;;;;;;;13.81;100.00;99110.63;5014577;28;20017;-74
2023/05/08 00:59:08;;;;;;;5.72;3.60;;;;;;;13.90;100.00;99123.97;5013433;28;20076;-74
2023/05/08 01:01:36;;;;;;;8.90;3.55;;;;;;;13.68;100.00;99096.28;5027973;28;20036;-74
2023/05/08 01:04:03;;;;;;;4.30;3.47;;;;;;;13.86;100.00;99109.13;5031447;28;20059;-74
2023/05/08 01:06:28;;;;;;;7.20;4.53;;;;;;;13.88;100.00;99115.19;5040335;28;20114;-74
2023/05/08 01:08:54;;;;;;;5.68;3.80;;;;;;;13.94;100.00;99119.78;5011185;28;20045;-75
2023/05/08 01:11:25;;;;;;;5.88;3.95;;;;;;;13.96;100.00;99139.41;5031611;28;20021;-74
2023/05/08 01:14:02;;;;;;;6.05;4.18;;;;;;;13.62;100.00;99075.38;5028456;28;20033;-74
2023/05/08 01:16:43;;;;;;;5.95;3.88;;;;;;;13.81;100.00;99118.78;5029475;28;20036;-74
2023/05/08 01:19:53;;;;;;;5.22;3.53;;;;;;;13.94;100.00;99128.78;5018094;28;20032;-75
2023/05/08 01:22:41;;;;;;;8.93;3.78;;;;;;;14.07;100.00;99127.00;5035103;28;20035;-74
2023/05/08 01:25:45;;;;;;;5.30;3.20;;;;;;;14.08;100.00;99132.25;5032636;28;20033;-74
2023/05/08 01:28:25;;;;;;;6.88;3.67;;;;;;;13.99;100.00;99126.25;5007103;28;20116;-74
2023/05/08 01:31:15;;;;;;;3.78;3.22;;;;;;;14.07;100.00;99137.91;5027360;28;20042;-74
2023/05/08 01:33:50;;;;;;;4.85;3.72;;;;;;;14.06;100.00;99139.78;5027026;28;20033;-75
2023/05/08 01:36:35;;;;;;;4.50;3.13;;;;;;;13.96;100.00;99142.13;5013568;28;20052;-74
2023/05/08 01:39:16;;;;;;;5.53;3.80;;;;;;;13.93;100.00;99137.13;5023274;28;20037;-74
2023/05/08 01:41:49;;;;;;;6.20;3.75;;;;;;;13.90;100.00;99124.81;5028606;28;20029;-74
2023/05/08 01:44:17;;;;;;;4.07;3.33;;;;;;;13.90;100.00;99135.69;5017548;28;20021;-75
2023/05/08 01:46:49;;;;;;;5.47;3.10;;;;;;;14.01;100.00;99150.50;5034058;28;20120;-75
2023/05/08 01:49:33;;;;;;;7.22;4.30;;;;;;;13.86;100.00;99142.63;5029572;28;20033;-74
2023/05/08 01:52:02;;;;;;;4.93;3.38;;;;;;;13.82;100.00;99147.66;5013543;28;20025;-74
2023/05/08 01:54:35;;;;;;;4.90;3.35;;;;;;;13.84;100.00;99157.50;5029302;28;20073;-75
2023/05/08 01:57:03;;;;;;;5.00;3.25;;;;;;;13.83;100.00;99159.34;5014476;28;20037;-75
2023/05/08 01:59:32;;;;;;;4.38;3.28;;;;;;;13.80;100.00;99154.34;5042816;28;20036;-75
2023/05/08 02:01:59;;;;;;;3.80;3.00;;;;;;;13.83;100.00;99151.19;5041360;28;20036;-74
2023/05/08 02:04:26;;;;;;;4.18;3.35;;;;;;;13.80;100.00;99157.06;5014204;28;20036;-75
2023/05/08 02:06:54;;;;;;;4.25;3.08;;;;;;;13.89;100.00;99174.00;5036769;28;20087;-74
2023/05/08 02:09:21;;;;;;;6.20;4.27;;;;;;;13.77;100.00;99149.34;5031555;28;20029;-75
2023/05/08 02:11:49;;;;;;;4.97;3.45;;;;;;;13.80;100.00;99176.94;5031975;28;20402;-75
2023/05/08 02:14:18;;;;;;;8.38;3.40;;;;;;;13.67;100.00;99149.78;5025571;28;20500;-74
2023/05/08 02:16:46;;;;;;;4.43;3.55;;;;;;;13.70;100.00;99152.09;5012877;28;20029;-74
2023/05/08 02:19:13;;;;;;;6.45;3.72;;;;;;;13.64;100.00;99149.41;5025645;28;20037;-75
2023/05/08 02:21:40;;;;;;;8.15;4.22;;;;;;;13.71;100.00;99159.19;5030164;28;20139;-74
2023/05/08 02:24:05;;;;;;;5.28;4.20;;;;;;;13.70;100.00;99168.44;5028264;28;20078;-75
2023/05/08 02:26:32;;;;;;;6.13;4.68;;;;;;;13.61;100.00;99149.84;5029659;28;20183;-75
2023/05/08 02:28:59;;;;;;;6.93;5.28;;;;;;;13.59;100.00;99150.03;5030649;28;20033;-75
2023/05/08 02:31:26;;;;;;;10.00;5.80;;;;;;;13.52;100.00;99135.66;5008686;28;20026;-75
2023/05/08 02:33:52;;;;;;;8.00;5.75;;;;;;;13.56;100.00;99153.19;5018292;28;20065;-75
2023/05/08 02:36:18;;;;;;;7.25;5.68;;;;;;;13.59;100.00;99159.03;5033717;28;20048;-75
2023/05/08 02:38:47;;;;;;;8.00;5.68;;;;;;;13.68;100.00;99173.22;5035155;28;20029;-75
2023/05/08 02:41:14;;;;;;;8.55;5.72;;;;;;;13.73;100.00;99170.72;5016110;28;20098;-75
2023/05/08 02:43:40;;;;;;;7.35;5.00;;;;;;;13.66;100.00;99167.16;5034751;28;20096;-75
2023/05/08 02:46:13;;;;;;;10.00;5.05;;;;;;;13.85;100.00;99179.00;5031436;28;20734;-75
2023/05/08 02:49:06;;;;;;;9.45;4.20;;;;;;;13.75;100.00;99173.19;5039302;28;20017;-74
2023/05/08 02:51:42;;;;;;;6.82;4.25;;;;;;;13.76;100.00;99178.44;5012316;28;20140;-75
2023/05/08 02:54:15;;;;;;;8.75;4.53;;;;;;;13.73;100.00;99169.88;5030577;28;20029;-75
2023/05/08 02:56:54;;;;;;;4.20;3.60;;;;;;;13.74;100.00;99168.81;5009457;28;20180;-75
2023/05/08 02:59:33;;;;;;;5.05;3.88;;;;;;;13.70;100.00;99159.41;5012187;28;20508;-75
2023/05/08 03:02:12;;;;;;;9.20;3.95;;;;;;;13.76;100.00;99178.44;5030903;28;20057;-75
2023/05/08 03:04:49;;;;;;;5.25;3.58;;;;;;;13.71;100.00;99152.94;5024246;28;20108;-74
2023/05/08 03:07:15;;;;;;;5.63;3.88;;;;;;;13.71;100.00;99156.50;5028824;28;20026;-75
2023/05/08 03:09:46;;;;;;;4.13;3.28;;;;;;;13.80;100.00;99168.78;5017020;28;20445;-74
2023/05/08 03:12:19;;;;;;;5.40;3.28;;;;;;;13.82;100.00;99166.69;5031157;28;20111;-74
2023/05/08 03:14:54;;;;;;;4.15;3.65;;;;;;;13.74;100.00;99149.78;5034222;28;20155;-74
2023/05/08 03:17:21;;;;;;;6.40;3.25;;;;;;;13.77;100.00;99155.63;5012718;28;20075;-75
2023/05/08 03:19:51;;;;;;;4.72;3.53;;;;;;;13.80;100.00;99170.66;5024901;28;20082;-79
2023/05/08 03:22:19;;;;;;;5.18;3.30;;;;;;;13.71;100.00;99144.78;5016028;28;20017;-75
2023/05/08 03:24:46;;;;;;;4.82;3.17;;;;;;;13.71;100.00;99147.50;5013988;28;20116;-74
2023/05/08 03:27:12;;;;;;;5.00;3.47;;;;;;;13.68;100.00;99145.22;5016870;28;20053;-74
2023/05/08 03:29:38;;;;;;;6.03;3.13;;;;;;;13.69;100.00;99152.31;5028705;28;20391;-75
2023/05/08 03:32:05;;;;;;;5.57;3.38;;;;;;;13.71;100.00;99148.31;5033878;28;20022;-77
2023/05/08 03:34:32;;;;;;;7.53;3.50;;;;;;;13.69;100.00;99158.56;5015021;28;20033;-75
2023/05/08 03:36:57;;;;;;;5.30;3.60;;;;;;;13.76;100.00;99161.28;5022400;28;20037;-76
2023/05/08 03:39:24;;;;;;;3.45;3.10;;;;;;;13.76;100.00;99153.97;5030785;28;20029;-81
2023/05/08 03:41:50;;;;;;;3.75;3.30;;;;;;;13.70;100.00;99145.81;5016849;28;20029;-77
2023/05/08 03:44:17;;;;;;;3.78;3.20;;;;;;;13.67;100.00;99138.91;5017501;28;20033;-79
2023/05/08 03:46:43;;;;;;;4.40;3.67;;;;;;;13.85;100.00;99167.31;5008185;28;20053;-78
2023/05/08 03:49:09;;;;;;;3.85;3.35;;;;;;;13.83;100.00;99159.34;5015072;28;20048;-78
2023/05/08 03:51:38;;;;;;;3.80;3.10;;;;;;;13.77;100.00;99144.75;5013504;28;20029;-78
2023/05/08 03:54:04;;;;;;;6.03;3.95;;;;;;;13.68;100.00;99135.16;5014065;28;20025;-76
2023/05/08 03:56:29;;;;;;;4.57;3.70;;;;;;;13.82;100.00;99166.69;5017072;28;20170;-77
2023/05/08 03:59:23;;;;;;;7.72;4.15;;;;;;;13.84;100.00;99162.94;5031104;28;20181;-80
2023/05/08 04:02:08;;;;;;;6.88;4.50;;;;;;;13.76;100.00;99162.13;5018904;28;20021;-74
2023/05/08 04:04:39;;;;;;;6.43;4.47;;;;;;;13.75;100.00;99165.91;5037834;28;20021;-83
2023/05/08 04:07:17;;;;;;;6.63;5.03;;;;;;;13.66;100.00;99142.69;5031281;28;20030;-78
2023/05/08 04:10:01;;;;;;;6.30;4.72;;;;;;;13.78;100.00;99164.59;5028399;28;20533;-80
2023/05/08 04:12:48;;;;;;;8.13;4.60;;;;;;;13.80;100.00;99176.09;5036070;28;20029;-73
2023/05/08 04:15:21;;;;;;;6.82;4.30;;;;;;;13.71;100.00;99156.50;5022733;28;20025;-77
2023/05/08 04:17:54;;;;;;;5.55;4.38;;;;;;;13.66;100.00;99163.63;5032697;28;20422;-76
2023/05/08 04:20:23;;;;;;;5.32;4.22;;;;;;;13.71;100.00;99172.81;5033949;28;20474;-74
2023/05/08 04:22:51;;;;;;;4.40;3.90;;;;;;;13.69;100.00;99176.78;5032808;28;20064;-73
2023/05/08 04:25:18;;;;;;;7.55;4.40;;;;;;;13.59;100.00;99169.91;5031183;28;20316;-75
2023/05/08 04:27:44;;;;;;;6.68;5.45;;;;;;;13.63;100.00;99178.47;5024719;28;20029;-77
2023/05/08 04:30:10;;;;;;;10.07;5.35;;;;;;;13.62;100.00;99179.50;5015577;28;20468;-78
2023/05/08 04:32:37;;;;;;;9.30;5.93;;;;;;;13.56;100.00;99183.09;5014651;28;20026;-82
2023/05/08 04:35:03;;;;;;;6.30;5.65;;;;;;;13.62;100.00;99190.38;5040413;28;20017;-82
2023/05/08 04:37:30;;;;;;;10.50;6.80;;;;;;;13.73;100.00;99200.63;5023811;28;20098;-75
2023/05/08 04:39:56;;;;;;;9.60;6.60;;;;;;;13.72;100.00;99184.50;5032057;28;20033;-76
2023/05/08 04:42:23;;;;;;;7.57;6.30;;;;;;;13.66;100.00;99185.38;5032701;28;21095;-76
2023/05/08 04:44:48;;;;;;;9.65;6.35;;;;;;;13.74;100.00;99194.13;5033403;28;22286;-75
2023/05/08 04:47:14;;;;;;;7.43;5.82;;;;;;;13.66;100.00;99186.19;5015567;28;20072;-77
2023/05/08 04:49:39;;;;;;;10.68;5.32;;;;;;;13.80;100.00;99206.84;5010748;28;20020;-76
2023/05/08 04:52:05;;;;;;;6.90;5.60;;;;;;;13.85;100.00;99200.78;5009283;28;20033;-83
2023/05/08 04:54:31;;;;;;;6.82;5.45;;;;;;;13.81;100.00;99203.09;5028519;28;20079;-79
2023/05/08 04:56:56;;;;;;;8.77;6.38;;;;;;;13.87;100.00;99198.69;5025966;28;20030;-76
2023/05/08 04:59:21;;;;;;;6.13;5.03;;;;;;;13.87;100.00;99192.41;5030598;28;20080;-75
2023/05/08 05:01:47;;;;;;;5.45;4.78;;;;;;;13.80;100.00;99181.53;5027311;28;20075;-75
2023/05/08 05:04:12;;;;;;;6.30;4.60;;;;;;;13.97;100.00;99198.22;5012245;28;20021;-75
2023/05/08 05:06:37;;;;;;;6.15;4.68;;;;;;;13.96;100.00;99199.25;5030442;28;20032;-77
2023/05/08 05:09:04;;;;;;;6.60;4.45;;;;;;;14.04;100.00;99204.47;5023134;28;20021;-75
2023/05/08 05:11:29;;;;;;;7.82;4.45;;;;;;;14.07;100.00;99204.06;5023018;28;20025;-76
2023/05/08 05:13:54;;;;;;;8.07;4.15;;;;;;;14.10;100.00;99209.06;5041553;28;20083;-75
2023/05/08 05:16:20;;;;;;;5.50;4.53;;;;;;;14.04;100.00;99182.69;5029950;28;20400;-75
2023/05/08 05:18:46;;;;;;;6.97;4.40;;;;;;;14.33;100.00;99203.09;5015891;28;20068;-81
2023/05/08 05:21:11;;;;;;;6.28;5.10;;;;;;;14.21;100.00;99183.03;5014549;28;20025;-73
2023/05/08 05:23:37;;;;;;;9.20;5.85;;;;;;;14.45;100.00;99200.50;5032161;28;20106;-73
2023/05/08 05:26:02;;;;;;;6.72;4.90;;;;;;;14.60;100.00;99200.22;5025669;28;20116;-73
2023/05/08 05:28:27;;;;;;;7.00;5.20;;;;;;;14.55;100.00;99191.88;5027122;28;21180;-74
2023/05/08 05:30:53;;;;;;;14.50;5.32;;;;;;;14.60;100.00;99203.78;5010210;28;20029;-74
2023/05/08 05:33:18;;;;;;;6.07;4.85;;;;;;;14.61;100.00;99191.81;5018435;28;20116;-75
2023/05/08 05:35:43;;;;;;;5.53;4.68;;;;;;;14.71;100.00;99196.78;5028216;28;20381;-72
2023/05/08 05:38:09;;;;;;;7.35;5.00;;;;;;;14.75;100.00;99211.66;5025278;28;20022;-72
2023/05/08 05:40:34;;;;;;;5.90;4.75;;;;;;;14.75;100.00;99205.34;5031673;28;20023;-72
2023/05/08 05:42:59;;;;;;;6.10;4.95;;;;;;;14.69;100.00;99202.44;5016769;28;20116;-72
2023/05/08 05:45:25;;;;;;;6.05;5.10;;;;;;;14.68;100.00;99203.50;5026735;28;20037;-72
2023/05/08 05:47:52;;;;;;;9.43;5.45;;;;;;;14.77;100.00;99214.97;5026173;28;20071;-72
2023/05/08 05:50:20;;;;;;;6.57;5.70;;;;;;;14.74;100.00;99220.84;5022806;28;20036;-72
2023/05/08 05:52:45;;;;;;;6.78;5.55;;;;;;;14.78;100.00;99221.28;5027912;28;20075;-79
2023/05/08 05:55:11;;;;;;;7.45;5.93;;;;;;;14.68;100.00;99224.47;5036593;28;20037;-80
2023/05/08 05:57:36;;;;;;;7.70;5.93;;;;;;;14.54;100.00;99207.38;5001669;28;20108;-75
2023/05/08 06:00:03;;;;;;;9.15;6.63;;;;;;;14.52;100.00;99211.34;5032784;28;20536;-72
2023/05/08 06:02:29;;;;;;;10.98;6.40;;;;;;;14.56;100.00;99223.50;5023089;28;20476;-79
2023/05/08 06:04:54;;;;;;;10.20;5.88;;;;;;;14.72;100.00;99230.31;5004606;28;20033;-76
2023/05/08 06:07:21;;;;;;;9.00;6.68;;;;;;;14.68;100.00;99228.03;5027336;28;20070;-81
2023/05/08 06:09:47;;;;;;;14.55;6.85;;;;;;;14.63;100.00;99221.56;5044635;28;20020;-81
2023/05/08 06:12:12;;;;;;;8.10;5.95;;;;;;;14.78;100.00;99227.53;5023016;28;20009;-78
2023/05/08 06:14:37;;;;;;;8.27;5.68;;;;;;;14.91;100.00;99232.06;5041689;28;20097;-81
2023/05/08 06:17:03;;;;;;;7.78;6.18;;;;;;;14.85;100.00;99213.84;5033820;28;20036;-78
2023/05/08 06:19:28;;;;;;;8.40;6.22;;;;;;;14.90;100.00;99219.47;5040893;28;20065;-77
2023/05/08 06:21:54;;;;;;;9.98;6.72;;;;;;;14.79;100.00;99217.47;5029186;28;20428;-80
2023/05/08 06:24:19;;;;;;;9.95;6.63;;;;;;;14.94;100.00;99220.72;5032800;28;20528;-78
2023/05/08 06:26:45;;;;;;;9.73;7.00;;;;;;;14.93;100.00;99208.13;5033403;28;20022;-74
2023/05/08 06:29:12;;;;;;;8.95;7.05;;;;;;;15.01;100.00;99224.25;5026973;28;20116;-73
2023/05/08 06:31:37;;;;;;;9.95;7.65;;;;;;;14.87;100.00;99189.97;5015313;28;20075;-74
2023/05/08 06:34:02;;;;;;;11.25;7.20;;;;;;;14.91;100.00;99199.38;5007699;28;20026;-73
2023/05/08 06:36:28;;;;;;;12.23;7.63;;;;;;;14.98;100.00;99210.19;5000886;28;20060;-78
2023/05/08 06:38:53;;;;;;;10.73;7.68;;;;;;;15.02;100.00;99195.91;5012170;28;20475;-73
2023/05/08 06:41:18;;;;;;;11.35;6.72;;;;;;;15.05;100.00;99186.47;5024084;28;20032;-74
2023/05/08 06:43:44;;;;;;;15.05;7.80;;;;;;;14.92;100.00;99205.66;5018762;28;20021;-79
2023/05/08 06:46:09;;;;;;;11.85;7.72;;;;;;;15.08;100.00;99202.38;5008440;28;20029;-69
2023/05/08 06:48:34;;;;;;;10.00;6.63;;;;;;;15.13;100.00;99206.09;5028120;28;20053;-74
2023/05/08 06:51:00;;;;;;;10.90;7.70;;;;;;;15.24;100.00;99220.03;5012543;28;20096;-73
2023/05/08 06:53:26;;;;;;;9.50;6.88;;;;;;;15.11;100.00;99194.56;5030028;28;20041;-75
2023/05/08 06:55:51;;;;;;;7.93;6.22;;;;;;;15.26;100.00;99205.13;5011399;28;20038;-76
2023/05/08 06:58:17;;;;;;;10.60;6.97;;;;;;;15.28;100.00;99210.38;5024152;28;20034;-74
2023/05/08 07:00:42;;;;;;;8.77;6.82;;;;;;;15.28;100.00;99213.09;5010062;28;20467;-75
2023/05/08 07:03:07;;;;;;;11.05;7.60;;;;;;;15.39;100.00;99212.34;5013210;28;20064;-81
2023/05/08 07:05:33;;;;;;;8.77;6.78;;;;;;;15.47;100.00;99212.06;5019743;28;20026;-70
2023/05/08 07:07:58;;;;;;;10.52;6.68;;;;;;;15.40;100.00;99202.28;5011504;28;20022;-81
2023/05/08 07:10:23;;;;;;;9.40;7.43;;;;;;;15.46;100.00;99217.75;5035440;28;20026;-81
2023/05/08 07:12:49;;;;;;;9.75;7.22;;;;;;;15.30;100.00;99186.44;5019556;28;20028;-81
2023/05/08 07:15:15;;;;;;;9.90;6.88;;;;;;;15.53;100.00;99204.88;5031565;28;20021;-77
2023/05/08 07:17:40;;;;;;;9.10;6.97;;;;;;;15.61;100.00;99198.28;5013621;28;20025;-78
2023/05/08 07:20:07;;;;;;;8.80;6.88;;;;;;;15.64;100.00;99195.97;5026195;28;20392;-75
2023/05/08 07:22:32;;;;;;;9.30;6.65;;;;;;;15.88;100.00;99190.69;5034397;28;20017;-76
2023/05/08 07:24:57;;;;;;;12.60;6.68;;;;;;;16.07;100.00;99180.56;5030483;28;20021;-75
2023/05/08 07:27:23;;;;;;;9.55;6.55;;;;;;;16.39;100.00;99203.84;5032632;28;20040;-75
2023/05/08 07:29:48;;;;;;;8.57;6.07;;;;;;;16.67;100.00;99191.50;5024402;28;20044;-82
2023/05/08 07:32:14;;;;;;;7.13;5.85;;;;;;;17.11;100.00;99205.75;5016695;28;20080;-73
2023/05/08 07:34:39;;;;;;;8.32;6.65;;;;;;;17.12;100.00;99193.72;5017265;28;20528;-73
2023/05/08 07:37:05;;;;;;;7.95;5.80;;;;;;;17.30;100.00;99160.81;5024081;28;20026;-75
2023/05/08 07:39:30;;;;;;;7.93;6.55;;;;;;;17.75;100.00;99178.47;5014736;28;20052;-73
2023/05/08 07:41:56;;;;;;;7.88;5.93;;;;;;;17.84;100.00;99174.34;5029215;28;20045;-78
2023/05/08 07:44:21;;;;;;;6.68;5.25;;;;;;;18.11;100.00;99168.31;5038454;28;20025;-78
2023/05/08 07:46:46;;;;;;;8.73;6.05;;;;;;;18.22;100.00;99153.72;5031156;28;20578;-80
2023/05/08 07:49:11;;;;;;;9.02;5.85;;;;;;;18.79;100.00;99180.28;5030799;28;20089;-75
2023/05/08 07:51:37;;;;;;;7.80;5.63;;;;;;;19.13;100.00;99180.28;5031558;28;20029;-81
2023/05/08 07:54:02;;;;;;;7.82;5.70;;;;;;;19.32;100.00;99173.44;5020834;28;20153;-85
2023/05/08 07:56:27;;;;;;;9.05;5.65;;;;;;;19.31;100.00;99165.47;5045994;28;20025;-79
2023/05/08 07:58:53;;;;;;;9.18;6.45;;;;;;;19.29;100.00;99171.22;5039676;28;20036;-77
2023/05/08 08:01:18;;;;;;;8.02;5.95;;;;;;;19.11;100.00;99155.03;5034771;28;20037;-78
2023/05/08 08:03:44;;;;;;;7.10;5.85;;;;;;;18.78;100.00;99176.69;5044583;28;20017;-78
2023/05/08 08:06:10;;;;;;;12.38;6.28;;;;;;;18.56;100.00;99157.38;5047999;28;20044;-81
2023/05/08 08:08:35;;;;;;;8.18;5.63;;;;;;;18.99;100.00;99171.56;5048200;28;20045;-77
2023/05/08 08:11:00;;;;;;;10.50;5.50;;;;;;;19.13;100.00;99183.03;5037406;28;20049;-76
2023/05/08 08:13:26;;;;;;;8.50;6.10;;;;;;;19.06;100.00;99185.94;5041040;28;20025;-78
2023/05/08 08:15:51;;;;;;;7.20;5.75;;;;;;;19.13;100.00;99164.66;5022703;28;20021;-75
2023/05/08 08:18:16;;;;;;;9.88;6.03;;;;;;;19.35;100.00;99169.38;5020153;28;20163;-77
2023/05/08 08:20:42;;;;;;;7.65;5.22;;;;;;;19.75;100.00;99174.63;5036549;28;20120;-78
2023/05/08 08:23:07;;;;;;;7.57;5.38;;;;;;;19.39;100.00;99151.34;5028286;28;20034;-76
2023/05/08 08:25:32;;;;;;;8.38;5.90;;;;;;;19.36;100.00;99169.13;5031292;28;20052;-75
2023/05/08 08:27:57;;;;;;;6.60;5.53;;;;;;;19.03;100.00;99167.25;5014871;28;20037;-76
2023/05/08 08:30:23;;;;;;;12.05;6.03;;;;;;;19.28;100.00;99180.50;5028578;28;20037;-76
2023/05/08 08:32:48;;;;;;;8.23;5.78;;;;;;;18.89;100.00;99157.66;5032788;28;20124;-76
2023/05/08 08:35:14;;;;;;;7.80;6.13;;;;;;;18.91;100.00;99188.41;5022259;28;20075;-77
2023/05/08 08:37:39;;;;;;;9.55;6.13;;;;;;;18.77;100.00;99175.03;5035684;28;20479;-76
2023/05/08 08:40:05;;;;;;;9.68;5.90;;;;;;;18.71;100.00;99186.97;5014292;28;20413;-77
2023/05/08 08:42:31;;;;;;;9.35;6.50;;;;;;;18.42;100.00;99186.16;5027170;28;20036;-78
2023/05/08 08:44:56;;;;;;;8.32;6.55;;;;;;;18.21;100.00;99182.19;5013741;28;20029;-76
2023/05/08 08:47:27;;;;;;;8.40;6.10;;;;;;;18.18;100.00;99186.25;5025035;28;20037;-77
2023/05/08 08:49:54;;;;;;;10.02;6.20;;;;;;;17.79;100.00;99178.81;5032040;28;20021;-74
2023/05/08 08:52:34;;;;;;;8.20;6.10;;;;;;;17.82;100.00;99203.03;5033451;28;20032;-75
2023/05/08 08:55:02;;;;;;;9.15;6.75;;;;;;;17.79;100.00;99181.56;5041660;28;20070;-75
2023/05/08 08:57:32;;;;;;;10.13;7.65;;;;;;;17.71;100.00;99159.00;5012519;28;20554;-72
2023/05/08 09:00:02;;;;;;;9.60;6.70;;;;;;;17.82;100.00;99194.81;5027206;28;20040;-79
2023/05/08 09:02:30;;;;;;;10.35;7.07;;;;;;;17.80;100.00;99188.75;5015735;28;20175;-73
2023/05/08 09:04:56;;;;;;;9.82;6.93;;;;;;;18.02;100.00;99192.47;5030427;28;20021;-73
2023/05/08 09:07:22;;;;;;;12.25;7.32;;;;;;;17.96;100.00;99190.72;5029851;28;20075;-73
2023/05/08 09:09:48;;;;;;;10.95;7.55;;;;;;;18.10;100.00;99203.06;5031457;28;20017;-81
2023/05/08 09:12:13;;;;;;;13.85;7.53;;;;;;;18.07;100.00;99176.16;5017674;28;20033;-73
2023/05/08 09:14:38;;;;;;;7.65;6.10;;;;;;;18.70;100.00;99182.53;5031362;28;20083;-73
2023/05/08 09:17:04;;;;;;;10.07;7.10;;;;;;;18.85;100.00;99187.50;5031888;28;20116;-79
2023/05/08 09:19:30;;;;;;;9.90;6.80;;;;;;;19.10;100.00;99176.13;5037505;28;20036;-78
2023/05/08 09:21:59;;;;;;;9.25;6.15;;;;;;;19.24;100.00;99176.63;5037770;28;20104;-78
2023/05/08 09:24:26;;;;;;;9.30;6.35;;;;;;;18.96;100.00;99163.81;5028715;28;20032;-79
2023/05/08 09:26:52;;;;;;;8.95;6.32;;;;;;;19.35;100.00;99189.41;5012787;28;20021;-77
2023/05/08 09:29:22;;;;;;;8.60;6.05;;;;;;;19.31;100.00;99176.44;5028116;28;20111;-76
2023/05/08 09:31:49;;;;;;;8.88;6.07;;;;;;;19.34;100.00;99186.94;5037523;28;20422;-73
2023/05/08 09:34:28;;;;;;;7.72;5.80;;;;;;;19.28;100.00;99183.25;5023739;28;20091;-74
2023/05/08 09:37:11;;;;;;;7.93;5.80;;;;;;;19.44;100.00;99173.34;5030652;28;20029;-74
2023/05/08 09:39:40;;;;;;;11.15;6.57;;;;;;;19.30;100.00;99167.38;5030805;28;20040;-74
2023/05/08 09:42:05;;;;;;;9.52;5.82;;;;;;;19.78;100.00;99176.03;5024738;28;20057;-73
2023/05/08 09:44:52;;;;;;;8.88;5.97;;;;;;;19.44;100.00;99187.06;5030748;28;20682;-74
2023/05/08 09:47:22;;;;;;;6.65;4.85;;;;;;;19.83;100.00;99174.22;5009740;28;20433;-76
2023/05/08 09:50:05;;;;;;;7.25;5.10;;;;;;;19.53;100.00;99184.72;5031378;28;20025;-73
2023/05/08 09:52:32;;;;;;;6.97;4.95;;;;;;;19.64;100.00;99187.34;5030511;28;20029;-78
2023/05/08 09:54:59;;;;;;;8.30;5.82;;;;;;;19.60;100.00;99194.44;5021780;28;20029;-72
2023/05/08 09:57:25;;;;;;;6.55;5.18;;;;;;;19.71;100.00;99181.72;5026351;28;20030;-73
2023/05/08 09:59:58;;;;;;;8.65;5.47;;;;;;;19.69;100.00;99189.38;5012955;28;20140;-72
2023/05/08 10:02:25;;;;;;;12.93;5.70;;;;;;;19.91;100.00;99187.50;5028403;28;20075;-73
2023/05/08 10:04:50;;;;;;;9.95;6.18;;;;;;;20.30;100.00;99200.28;5027773;28;20159;-73
2023/05/08 10:07:15;;;;;;;9.40;5.85;;;;;;;20.39;100.00;99192.44;5027377;28;20113;-73
2023/05/08 10:09:56;;;;;;;6.93;5.15;;;;;;;20.45;100.00;99183.16;5025443;28;20510;-75
2023/05/08 10:12:22;;;;;;;13.73;5.78;;;;;;;20.49;100.00;99195.31;5027432;28;20010;-75
2023/05/08 10:14:47;;;;;;;6.85;5.10;;;;;;;20.43;100.00;99182.56;5031851;28;20483;-75
2023/05/08 10:17:20;;;;;;;7.15;5.80;;;;;;;20.01;100.00;99185.94;5037273;28;20041;-75
2023/05/08 10:19:48;;;;;;;7.35;5.93;;;;;;;20.19;100.00;99182.88;5029757;28;20048;-75
2023/05/08 10:22:15;;;;;;;8.77;5.82;;;;;;;20.58;100.00;99180.84;5010775;28;20029;-72
2023/05/08 10:24:42;;;;;;;10.05;5.30;;;;;;;21.82;100.00;99190.88;5030608;28;20047;-72
2023/05/08 10:27:19;;;;;;;9.15;5.78;;;;;;;23.08;100.00;99182.44;5031644;28;20033;-72
2023/05/08 10:29:58;;;;;;;5.90;4.63;;;;;;;23.83;100.00;99188.97;5031103;28;20022;-72
2023/05/08 10:32:24;;;;;;;;;;;;;;;24.51;100.00;99178.47;5025577;28;20379;-72
2023/05/08 10:35:01;;;;;;;7.00;4.53;;;;;;;25.26;100.00;99175.47;5031343;28;19909;-72
2023/05/08 10:37:29;;;;;;;6.22;5.07;;;;;;;26.09;100.00;99173.44;5026248;28;20399;-72
2023/05/08 10:39:57;;;;;;;4.55;4.05;;;;;;;27.73;100.00;99186.44;5030211;28;20041;-72
2023/05/08 10:42:23;;;;;;;5.28;4.35;;;;;;;28.09;84.89;99177.41;5023996;28;20033;-72
2023/05/08 10:44:49;;;;;;;4.47;3.65;;;;;;;28.79;87.50;99175.31;5026469;28;20033;-72
2023/05/08 10:47:51;;;;;;;4.57;2.90;;;;;;;28.69;89.76;99178.34;5023044;28;20032;-71
2023/05/08 10:50:41;;;;;;;4.78;3.10;;;;;;;28.87;83.24;99179.31;5007077;28;20120;-71
2023/05/08 10:53:15;;;;;;;5.60;4.20;;;;;;;26.10;98.78;99170.41;5029141;28;20075;-71
2023/05/08 10:55:44;;;;;;;5.50;3.78;;;;;;;24.97;100.00;99167.91;5036069;28;20038;-71
2023/05/08 10:58:14;;;;;;;5.18;3.90;;;;;;;24.75;100.00;99170.28;5027679;28;20049;-76
2023/05/08 11:00:51;;;;;;;5.28;4.32;;;;;;;23.48;100.00;99165.00;5014317;28;20120;-75
2023/05/08 11:03:22;;;;;;;5.53;3.90;;;;;;;23.59;100.00;99171.34;5044320;28;20025;-78
2023/05/08 11:05:49;;;;;;;5.35;4.63;;;;;;;23.92;100.00;99172.66;5024531;28;20095;-73
2023/05/08 11:08:23;;;;;;;5.22;4.00;;;;;;;23.55;100.00;99167.47;5024855;28;20582;-73
2023/05/08 11:10:58;;;;;;;7.03;4.43;;;;;;;22.78;100.00;99173.03;5031815;28;20053;-72
2023/05/08 11:13:41;;;;;;;9.43;4.50;;;;;;;22.96;100.00;99161.47;5026521;28;20028;-73
2023/05/08 11:16:09;;;;;;;5.10;4.00;;;;;;;23.55;100.00;99156.41;5031066;28;20041;-73
2023/05/08 11:18:34;;;;;;;5.33;4.03;;;;;;;23.59;100.00;99155.59;5030189;28;20025;-74
2023/05/08 11:21:03;;;;;;;3.90;3.25;;;;;;;24.56;100.00;99173.75;5030896;28;20118;-73
2023/05/08 11:23:30;;;;;;;5.47;3.55;;;;;;;25.36;100.00;99169.78;5034213;28;20017;-73
2023/05/08 11:26:02;;;;;;;7.00;4.78;;;;;;;25.80;100.00;99166.00;5034694;28;20033;-73
2023/05/08 11:28:39;;;;;;;7.82;6.28;;;;;;;25.34;100.00;99159.03;5034161;28;20017;-72
2023/05/08 11:31:06;;;;;;;7.43;6.18;;;;;;;24.32;100.00;99150.63;5032244;28;20026;-73